This is the latest recevied weather packets stored in our database for station/object K4HOG. If no packets are shown the sender has not sent any weather packets the latest 1 day(s).
| Time | Temp. | Humidity | Pressure | Rain* | Wind** | Luminosity | Snow |
|---|---|---|---|---|---|---|---|
| 1778078748 | 27.78° C | 64% | 1017.1 hPa | 0 mm | - | 377 W/m² | - |
| 1778078445 | 27.22° C | 67% | 1017.3 hPa | 0 mm | - | 237 W/m² | - |
| 1778077841 | 27.22° C | 68% | 1016.9 hPa | 0 mm | - | 151 W/m² | - |
| 1778076934 | 26.67° C | 72% | 1017.2 hPa | 0 mm | - | 106 W/m² | - |
| 1778075723 | 25.56° C | 77% | 1017 hPa | 0 mm | - | 149 W/m² | - |
| 1778074812 | 24.44° C | 79% | 1016.9 hPa | 0 mm | - | 138 W/m² | - |
| 1778073903 | 23.89° C | 80% | 1016.7 hPa | 0 mm | - | 108 W/m² | - |
| 1778072994 | 22.78° C | 83% | 1016.8 hPa | 0 mm | - | 118 W/m² | - |
| 1778070574 | 21.11° C | 85% | 1016.7 hPa | 0 mm | - | 79 W/m² | - |
| 1778070271 | 21.11° C | 85% | 1016.6 hPa | 0 mm | - | 67 W/m² | - |
| 1778069666 | 20.56° C | 87% | 1016.6 hPa | 0 mm | - | 100 W/m² | - |
| 1778069363 | 20° C | 90% | 1016.5 hPa | 0 mm | - | 102 W/m² | - |
| 1778067851 | 17.78° C | 95% | 1016.2 hPa | 0 mm | - | 36 W/m² | - |
| 1778067550 | 17.78° C | 95% | 1016.1 hPa | 0 mm | - | 35 W/m² | - |
| 1778067247 | 17.22° C | 95% | 1016.2 hPa | 0 mm | - | 34 W/m² | - |
| 1778066338 | 16.67° C | 95% | 1016.1 hPa | 0 mm | - | 23 W/m² | - |
| 1778066036 | 16.67° C | 95% | 1016.1 hPa | 0 mm | - | 18 W/m² | - |
| 1778065733 | 16.67° C | 95% | 1016 hPa | 0 mm | - | 14 W/m² | - |
| 1778065430 | 16.67° C | 95% | 1016 hPa | 0 mm | - | 12 W/m² | - |
| 1778065127 | 16.67° C | 95% | 1016.1 hPa | 0 mm | - | 8 W/m² | - |
| 1778064521 | 16.67° C | 95% | 1015.7 hPa | 0 mm | - | 3 W/m² | - |
| 1778063916 | 16.67° C | 95% | 1015.7 hPa | 0 mm | - | 1 W/m² | - |
| 1778062401 | 16.67° C | 94% | 1015.6 hPa | 0 mm | - | 0 W/m² | - |
| 1778062100 | 16.67° C | 94% | 1015.4 hPa | 0 mm | - | 0 W/m² | - |
| 1778061798 | 16.67° C | 94% | 1015.4 hPa | 0 mm | - | 0 W/m² | - |
* Rain latest hour (hover to see other rain measurements)
** Current wind speed in m/s (hover to see current wind gust speed)